Bonaire, Georgia
Current Conditions -  °F | °C
As of 4:58 PM on Saturday 20 Dec 2014 (Local Time) from KWRB Reporting Station
Overcast Overcast  
Wind Chill: 54°   Ceiling: 1000
Heat Index: 54°   Visibility: 10mi
Dew Point: 50°   Wind: 2mph
Humidity: 86%   Direction: NA
Pressure: 30.15"   Gusts: NA
Location:  32.54°N, 83.6°W
Report Text: KWRB 202158Z AUTO VRB02KT 10SM OVC010 12/10 A3015 RMK AO2 SLP213 T01200098
Loading
Personal Weather Stations






























Interactive Weather Map New forecast layout! Learn more

10-Day Weather Forecast

Advertisements
Track Severe Weather on mobile